sensor_id;sensor_type;location;lat;lon;timestamp;P1;durP1;ratioP1;P2;durP2;ratioP2
76848;SDS011;65814;51.134;16.980;2023-11-21T00:01:49;6.10;;;3.00;;
76848;SDS011;65814;51.134;16.980;2023-11-21T00:04:17;7.10;;;3.60;;
76848;SDS011;65814;51.134;16.980;2023-11-21T00:06:45;7.10;;;2.80;;
76848;SDS011;65814;51.134;16.980;2023-11-21T00:09:15;4.80;;;3.10;;
76848;SDS011;65814;51.134;16.980;2023-11-21T00:11:55;5.70;;;3.00;;
76848;SDS011;65814;51.134;16.980;2023-11-21T00:14:41;5.40;;;2.60;;
76848;SDS011;65814;51.134;16.980;2023-11-21T00:17:15;6.00;;;2.90;;
76848;SDS011;65814;51.134;16.980;2023-11-21T00:19:46;5.00;;;2.90;;
76848;SDS011;65814;51.134;16.980;2023-11-21T00:22:20;8.30;;;3.60;;
76848;SDS011;65814;51.134;16.980;2023-11-21T00:24:48;5.70;;;2.90;;
76848;SDS011;65814;51.134;16.980;2023-11-21T00:27:16;7.00;;;3.00;;
76848;SDS011;65814;51.134;16.980;2023-11-21T00:29:44;4.20;;;2.80;;
76848;SDS011;65814;51.134;16.980;2023-11-21T00:32:12;6.70;;;2.80;;
76848;SDS011;65814;51.134;16.980;2023-11-21T00:34:41;7.90;;;3.70;;
76848;SDS011;65814;51.134;16.980;2023-11-21T00:37:10;5.70;;;3.00;;
76848;SDS011;65814;51.134;16.980;2023-11-21T00:39:39;5.90;;;2.70;;
76848;SDS011;65814;51.134;16.980;2023-11-21T00:42:07;7.30;;;3.10;;
76848;SDS011;65814;51.134;16.980;2023-11-21T00:44:39;9.20;;;3.60;;
76848;SDS011;65814;51.134;16.980;2023-11-21T00:47:13;4.50;;;3.00;;
76848;SDS011;65814;51.134;16.980;2023-11-21T00:49:51;6.80;;;2.80;;
76848;SDS011;65814;51.134;16.980;2023-11-21T00:52:20;5.30;;;2.80;;
76848;SDS011;65814;51.134;16.980;2023-11-21T00:54:49;5.70;;;3.00;;
76848;SDS011;65814;51.134;16.980;2023-11-21T00:57:17;5.40;;;3.50;;
76848;SDS011;65814;51.134;16.980;2023-11-21T00:59:49;7.70;;;3.50;;
76848;SDS011;65814;51.134;16.980;2023-11-21T01:02:27;4.70;;;3.40;;
76848;SDS011;65814;51.134;16.980;2023-11-21T01:05:02;5.30;;;2.50;;
76848;SDS011;65814;51.134;16.980;2023-11-21T01:07:34;6.40;;;3.70;;
76848;SDS011;65814;51.134;16.980;2023-11-21T01:10:08;4.90;;;3.80;;
76848;SDS011;65814;51.134;16.980;2023-11-21T01:12:49;8.10;;;3.70;;
76848;SDS011;65814;51.134;16.980;2023-11-21T01:15:28;9.70;;;3.60;;
76848;SDS011;65814;51.134;16.980;2023-11-21T01:17:58;6.40;;;3.30;;
76848;SDS011;65814;51.134;16.980;2023-11-21T01:20:26;7.00;;;4.10;;
76848;SDS011;65814;51.134;16.980;2023-11-21T01:22:54;5.80;;;3.60;;
76848;SDS011;65814;51.134;16.980;2023-11-21T01:25:28;4.70;;;3.10;;
76848;SDS011;65814;51.134;16.980;2023-11-21T01:27:56;4.60;;;3.30;;
76848;SDS011;65814;51.134;16.980;2023-11-21T01:30:24;4.70;;;3.10;;
76848;SDS011;65814;51.134;16.980;2023-11-21T01:32:53;6.10;;;3.10;;
76848;SDS011;65814;51.134;16.980;2023-11-21T01:35:23;5.70;;;3.40;;
76848;SDS011;65814;51.134;16.980;2023-11-21T01:37:57;8.50;;;3.40;;
76848;SDS011;65814;51.134;16.980;2023-11-21T01:40:27;7.20;;;3.40;;
76848;SDS011;65814;51.134;16.980;2023-11-21T01:42:58;6.30;;;3.40;;
76848;SDS011;65814;51.134;16.980;2023-11-21T01:45:34;7.90;;;3.40;;
76848;SDS011;65814;51.134;16.980;2023-11-21T01:48:03;6.70;;;3.30;;
76848;SDS011;65814;51.134;16.980;2023-11-21T01:50:44;7.50;;;3.10;;
76848;SDS011;65814;51.134;16.980;2023-11-21T01:53:15;6.40;;;3.50;;
76848;SDS011;65814;51.134;16.980;2023-11-21T01:56:14;4.70;;;3.00;;
76848;SDS011;65814;51.134;16.980;2023-11-21T01:58:51;5.70;;;2.80;;
76848;SDS011;65814;51.134;16.980;2023-11-21T02:01:36;7.80;;;3.30;;
76848;SDS011;65814;51.134;16.980;2023-11-21T02:04:12;3.90;;;2.80;;
76848;SDS011;65814;51.134;16.980;2023-11-21T02:06:46;6.80;;;3.90;;
76848;SDS011;65814;51.134;16.980;2023-11-21T02:09:14;6.60;;;3.10;;
76848;SDS011;65814;51.134;16.980;2023-11-21T02:11:47;6.60;;;3.90;;
76848;SDS011;65814;51.134;16.980;2023-11-21T02:14:17;10.60;;;4.40;;
76848;SDS011;65814;51.134;16.980;2023-11-21T02:16:53;6.60;;;4.10;;
76848;SDS011;65814;51.134;16.980;2023-11-21T02:19:25;8.50;;;4.60;;
76848;SDS011;65814;51.134;16.980;2023-11-21T02:21:54;6.90;;;4.60;;
76848;SDS011;65814;51.134;16.980;2023-11-21T02:24:27;6.70;;;4.40;;
76848;SDS011;65814;51.134;16.980;2023-11-21T02:27:10;7.60;;;4.00;;
76848;SDS011;65814;51.134;16.980;2023-11-21T02:29:42;9.10;;;3.80;;
76848;SDS011;65814;51.134;16.980;2023-11-21T02:32:11;6.70;;;4.40;;
76848;SDS011;65814;51.134;16.980;2023-11-21T02:34:44;6.20;;;3.60;;
76848;SDS011;65814;51.134;16.980;2023-11-21T02:37:13;4.70;;;4.10;;
76848;SDS011;65814;51.134;16.980;2023-11-21T02:39:41;6.20;;;3.70;;
76848;SDS011;65814;51.134;16.980;2023-11-21T02:42:09;6.50;;;3.90;;
76848;SDS011;65814;51.134;16.980;2023-11-21T02:44:37;5.80;;;3.70;;
76848;SDS011;65814;51.134;16.980;2023-11-21T02:47:05;6.40;;;3.60;;
76848;SDS011;65814;51.134;16.980;2023-11-21T02:49:33;5.10;;;3.70;;
76848;SDS011;65814;51.134;16.980;2023-11-21T02:52:02;7.10;;;4.10;;
76848;SDS011;65814;51.134;16.980;2023-11-21T02:54:31;6.80;;;3.50;;
76848;SDS011;65814;51.134;16.980;2023-11-21T02:57:04;7.10;;;3.70;;
76848;SDS011;65814;51.134;16.980;2023-11-21T02:59:33;6.30;;;3.90;;
76848;SDS011;65814;51.134;16.980;2023-11-21T03:02:01;7.60;;;4.20;;
76848;SDS011;65814;51.134;16.980;2023-11-21T03:04:29;5.80;;;3.90;;
76848;SDS011;65814;51.134;16.980;2023-11-21T03:07:00;11.30;;;4.60;;
76848;SDS011;65814;51.134;16.980;2023-11-21T03:09:28;8.60;;;4.80;;
76848;SDS011;65814;51.134;16.980;2023-11-21T03:11:56;8.10;;;4.10;;
76848;SDS011;65814;51.134;16.980;2023-11-21T03:14:24;8.00;;;5.10;;
76848;SDS011;65814;51.134;16.980;2023-11-21T03:16:55;9.30;;;4.10;;
76848;SDS011;65814;51.134;16.980;2023-11-21T03:19:22;7.20;;;4.40;;
76848;SDS011;65814;51.134;16.980;2023-11-21T03:21:51;7.80;;;4.70;;
76848;SDS011;65814;51.134;16.980;2023-11-21T03:24:20;9.60;;;4.40;;
76848;SDS011;65814;51.134;16.980;2023-11-21T03:26:50;8.70;;;5.80;;
76848;SDS011;65814;51.134;16.980;2023-11-21T03:29:18;8.50;;;4.70;;
76848;SDS011;65814;51.134;16.980;2023-11-21T03:31:46;7.40;;;4.90;;
76848;SDS011;65814;51.134;16.980;2023-11-21T03:34:16;8.00;;;4.60;;
76848;SDS011;65814;51.134;16.980;2023-11-21T03:36:50;8.70;;;4.70;;
76848;SDS011;65814;51.134;16.980;2023-11-21T03:39:21;8.60;;;4.90;;
76848;SDS011;65814;51.134;16.980;2023-11-21T03:41:50;10.10;;;5.20;;
76848;SDS011;65814;51.134;16.980;2023-11-21T03:44:19;7.00;;;4.30;;
76848;SDS011;65814;51.134;16.980;2023-11-21T03:46:47;7.80;;;4.30;;
76848;SDS011;65814;51.134;16.980;2023-11-21T03:49:15;6.30;;;4.30;;
76848;SDS011;65814;51.134;16.980;2023-11-21T03:51:43;10.50;;;5.10;;
76848;SDS011;65814;51.134;16.980;2023-11-21T03:54:11;10.70;;;5.60;;
76848;SDS011;65814;51.134;16.980;2023-11-21T03:56:39;10.30;;;5.40;;
76848;SDS011;65814;51.134;16.980;2023-11-21T03:59:07;7.00;;;4.20;;
76848;SDS011;65814;51.134;16.980;2023-11-21T04:01:35;6.40;;;4.40;;
76848;SDS011;65814;51.134;16.980;2023-11-21T04:04:03;6.50;;;4.60;;
76848;SDS011;65814;51.134;16.980;2023-11-21T04:06:31;6.40;;;4.90;;
76848;SDS011;65814;51.134;16.980;2023-11-21T04:09:00;6.00;;;4.40;;
76848;SDS011;65814;51.134;16.980;2023-11-21T04:11:28;10.10;;;5.60;;
76848;SDS011;65814;51.134;16.980;2023-11-21T04:13:57;8.30;;;5.30;;
76848;SDS011;65814;51.134;16.980;2023-11-21T04:16:25;7.50;;;5.30;;
76848;SDS011;65814;51.134;16.980;2023-11-21T04:18:53;7.00;;;6.10;;
76848;SDS011;65814;51.134;16.980;2023-11-21T04:21:21;8.40;;;5.10;;
76848;SDS011;65814;51.134;16.980;2023-11-21T04:23:49;7.00;;;4.20;;
76848;SDS011;65814;51.134;16.980;2023-11-21T04:26:18;8.00;;;4.90;;
76848;SDS011;65814;51.134;16.980;2023-11-21T04:28:46;6.40;;;4.10;;
76848;SDS011;65814;51.134;16.980;2023-11-21T04:31:14;8.30;;;4.50;;
76848;SDS011;65814;51.134;16.980;2023-11-21T04:33:42;10.50;;;4.60;;
76848;SDS011;65814;51.134;16.980;2023-11-21T04:36:10;8.10;;;4.70;;
76848;SDS011;65814;51.134;16.980;2023-11-21T04:38:38;7.00;;;3.70;;
76848;SDS011;65814;51.134;16.980;2023-11-21T04:41:06;7.40;;;5.00;;
76848;SDS011;65814;51.134;16.980;2023-11-21T04:43:34;5.70;;;3.30;;
76848;SDS011;65814;51.134;16.980;2023-11-21T04:46:05;5.90;;;4.50;;
76848;SDS011;65814;51.134;16.980;2023-11-21T04:48:34;5.60;;;3.70;;
76848;SDS011;65814;51.134;16.980;2023-11-21T04:51:02;5.50;;;4.20;;
76848;SDS011;65814;51.134;16.980;2023-11-21T04:53:31;8.40;;;4.00;;
76848;SDS011;65814;51.134;16.980;2023-11-21T04:56:01;7.80;;;5.10;;
76848;SDS011;65814;51.134;16.980;2023-11-21T04:58:31;7.60;;;4.60;;
76848;SDS011;65814;51.134;16.980;2023-11-21T05:00:59;9.40;;;4.40;;
76848;SDS011;65814;51.134;16.980;2023-11-21T05:03:27;7.30;;;4.30;;
76848;SDS011;65814;51.134;16.980;2023-11-21T05:05:57;7.00;;;4.70;;
76848;SDS011;65814;51.134;16.980;2023-11-21T05:08:27;6.30;;;4.30;;
76848;SDS011;65814;51.134;16.980;2023-11-21T05:10:55;7.00;;;5.10;;
76848;SDS011;65814;51.134;16.980;2023-11-21T05:13:23;10.10;;;6.20;;
76848;SDS011;65814;51.134;16.980;2023-11-21T05:15:58;8.70;;;6.00;;
76848;SDS011;65814;51.134;16.980;2023-11-21T05:18:26;8.80;;;5.10;;
76848;SDS011;65814;51.134;16.980;2023-11-21T05:20:57;7.70;;;5.80;;
76848;SDS011;65814;51.134;16.980;2023-11-21T05:23:25;8.10;;;5.70;;
76848;SDS011;65814;51.134;16.980;2023-11-21T05:25:54;8.90;;;5.60;;
76848;SDS011;65814;51.134;16.980;2023-11-21T05:28:23;11.00;;;6.60;;
76848;SDS011;65814;51.134;16.980;2023-11-21T05:30:51;8.60;;;5.70;;
76848;SDS011;65814;51.134;16.980;2023-11-21T05:33:40;10.30;;;7.10;;
76848;SDS011;65814;51.134;16.980;2023-11-21T05:36:08;7.30;;;5.00;;
76848;SDS011;65814;51.134;16.980;2023-11-21T05:38:37;10.70;;;6.40;;
76848;SDS011;65814;51.134;16.980;2023-11-21T05:41:05;8.90;;;6.10;;
76848;SDS011;65814;51.134;16.980;2023-11-21T05:43:34;9.20;;;6.40;;
76848;SDS011;65814;51.134;16.980;2023-11-21T05:46:03;10.40;;;5.70;;
76848;SDS011;65814;51.134;16.980;2023-11-21T05:48:32;10.00;;;6.70;;
76848;SDS011;65814;51.134;16.980;2023-11-21T05:51:00;10.30;;;6.10;;
76848;SDS011;65814;51.134;16.980;2023-11-21T05:53:29;7.60;;;5.00;;
76848;SDS011;65814;51.134;16.980;2023-11-21T05:55:57;7.70;;;5.10;;
76848;SDS011;65814;51.134;16.980;2023-11-21T05:58:25;6.40;;;5.00;;
76848;SDS011;65814;51.134;16.980;2023-11-21T06:00:53;8.80;;;5.20;;
76848;SDS011;65814;51.134;16.980;2023-11-21T06:03:21;8.00;;;5.60;;
76848;SDS011;65814;51.134;16.980;2023-11-21T06:05:53;9.40;;;6.30;;
76848;SDS011;65814;51.134;16.980;2023-11-21T06:08:21;6.10;;;4.40;;
76848;SDS011;65814;51.134;16.980;2023-11-21T06:10:49;8.50;;;5.40;;
76848;SDS011;65814;51.134;16.980;2023-11-21T06:13:17;10.70;;;5.90;;
76848;SDS011;65814;51.134;16.980;2023-11-21T06:15:51;6.90;;;4.10;;
76848;SDS011;65814;51.134;16.980;2023-11-21T06:18:20;7.80;;;5.60;;
76848;SDS011;65814;51.134;16.980;2023-11-21T06:20:48;8.30;;;5.60;;
76848;SDS011;65814;51.134;16.980;2023-11-21T06:23:16;8.00;;;6.10;;
76848;SDS011;65814;51.134;16.980;2023-11-21T06:25:44;7.70;;;5.70;;
76848;SDS011;65814;51.134;16.980;2023-11-21T06:28:12;9.10;;;5.50;;
76848;SDS011;65814;51.134;16.980;2023-11-21T06:30:40;9.10;;;6.10;;
76848;SDS011;65814;51.134;16.980;2023-11-21T06:33:23;7.70;;;5.60;;
76848;SDS011;65814;51.134;16.980;2023-11-21T06:35:55;9.30;;;6.00;;
76848;SDS011;65814;51.134;16.980;2023-11-21T06:38:23;8.20;;;5.40;;
76848;SDS011;65814;51.134;16.980;2023-11-21T06:40:51;9.20;;;5.60;;
76848;SDS011;65814;51.134;16.980;2023-11-21T06:43:19;7.10;;;4.70;;
76848;SDS011;65814;51.134;16.980;2023-11-21T06:45:49;8.90;;;5.00;;
76848;SDS011;65814;51.134;16.980;2023-11-21T06:48:17;7.20;;;4.60;;
76848;SDS011;65814;51.134;16.980;2023-11-21T06:50:45;7.60;;;4.90;;
76848;SDS011;65814;51.134;16.980;2023-11-21T06:53:14;7.30;;;4.90;;
76848;SDS011;65814;51.134;16.980;2023-11-21T06:55:42;7.60;;;5.80;;
76848;SDS011;65814;51.134;16.980;2023-11-21T06:58:10;8.20;;;5.10;;
76848;SDS011;65814;51.134;16.980;2023-11-21T07:00:38;9.70;;;5.80;;
76848;SDS011;65814;51.134;16.980;2023-11-21T07:03:06;8.50;;;5.20;;
76848;SDS011;65814;51.134;16.980;2023-11-21T07:05:34;8.90;;;5.70;;
76848;SDS011;65814;51.134;16.980;2023-11-21T07:08:02;7.40;;;5.90;;
76848;SDS011;65814;51.134;16.980;2023-11-21T07:10:32;9.10;;;6.00;;
76848;SDS011;65814;51.134;16.980;2023-11-21T07:13:00;10.80;;;7.20;;
76848;SDS011;65814;51.134;16.980;2023-11-21T07:15:29;8.20;;;6.00;;
76848;SDS011;65814;51.134;16.980;2023-11-21T07:17:56;8.70;;;5.50;;
76848;SDS011;65814;51.134;16.980;2023-11-21T07:20:24;7.20;;;5.70;;
76848;SDS011;65814;51.134;16.980;2023-11-21T07:22:53;8.40;;;6.20;;
76848;SDS011;65814;51.134;16.980;2023-11-21T07:25:21;9.40;;;6.10;;
76848;SDS011;65814;51.134;16.980;2023-11-21T07:27:49;7.90;;;5.20;;
76848;SDS011;65814;51.134;16.980;2023-11-21T07:30:17;7.60;;;5.70;;
76848;SDS011;65814;51.134;16.980;2023-11-21T07:32:45;10.20;;;5.50;;
76848;SDS011;65814;51.134;16.980;2023-11-21T07:35:15;8.70;;;5.60;;
76848;SDS011;65814;51.134;16.980;2023-11-21T07:37:44;8.60;;;5.80;;
76848;SDS011;65814;51.134;16.980;2023-11-21T07:40:12;8.50;;;5.70;;
76848;SDS011;65814;51.134;16.980;2023-11-21T07:42:41;8.50;;;5.70;;
76848;SDS011;65814;51.134;16.980;2023-11-21T07:45:13;10.90;;;5.60;;
76848;SDS011;65814;51.134;16.980;2023-11-21T07:47:42;6.80;;;5.30;;
76848;SDS011;65814;51.134;16.980;2023-11-21T07:50:11;7.50;;;5.20;;
76848;SDS011;65814;51.134;16.980;2023-11-21T07:52:41;8.30;;;5.30;;
76848;SDS011;65814;51.134;16.980;2023-11-21T07:55:09;7.50;;;5.20;;
76848;SDS011;65814;51.134;16.980;2023-11-21T07:57:37;6.20;;;4.80;;
76848;SDS011;65814;51.134;16.980;2023-11-21T08:00:06;7.30;;;4.60;;
76848;SDS011;65814;51.134;16.980;2023-11-21T08:02:40;8.90;;;5.00;;
76848;SDS011;65814;51.134;16.980;2023-11-21T08:05:10;9.10;;;4.80;;
76848;SDS011;65814;51.134;16.980;2023-11-21T08:07:51;7.50;;;5.00;;
76848;SDS011;65814;51.134;16.980;2023-11-21T08:10:19;6.70;;;4.90;;
76848;SDS011;65814;51.134;16.980;2023-11-21T08:12:49;7.70;;;5.60;;
76848;SDS011;65814;51.134;16.980;2023-11-21T08:15:18;9.80;;;5.50;;
76848;SDS011;65814;51.134;16.980;2023-11-21T08:17:47;7.90;;;5.50;;
76848;SDS011;65814;51.134;16.980;2023-11-21T08:20:16;7.80;;;4.70;;
76848;SDS011;65814;51.134;16.980;2023-11-21T08:22:46;8.20;;;5.30;;
76848;SDS011;65814;51.134;16.980;2023-11-21T08:25:15;7.30;;;5.00;;
76848;SDS011;65814;51.134;16.980;2023-11-21T08:27:48;6.80;;;5.30;;
76848;SDS011;65814;51.134;16.980;2023-11-21T08:30:17;9.30;;;5.50;;
76848;SDS011;65814;51.134;16.980;2023-11-21T08:32:47;6.50;;;5.80;;
76848;SDS011;65814;51.134;16.980;2023-11-21T08:35:15;8.70;;;5.00;;
76848;SDS011;65814;51.134;16.980;2023-11-21T08:37:44;6.80;;;4.50;;
76848;SDS011;65814;51.134;16.980;2023-11-21T08:40:12;11.50;;;5.50;;
76848;SDS011;65814;51.134;16.980;2023-11-21T08:45:14;7.00;;;4.50;;
76848;SDS011;65814;51.134;16.980;2023-11-21T08:47:43;6.80;;;4.80;;
76848;SDS011;65814;51.134;16.980;2023-11-21T08:50:14;11.30;;;6.50;;
76848;SDS011;65814;51.134;16.980;2023-11-21T08:52:43;8.30;;;4.90;;
76848;SDS011;65814;51.134;16.980;2023-11-21T08:55:14;5.90;;;4.70;;
76848;SDS011;65814;51.134;16.980;2023-11-21T08:57:43;6.70;;;5.00;;
76848;SDS011;65814;51.134;16.980;2023-11-21T09:00:14;7.80;;;4.80;;
76848;SDS011;65814;51.134;16.980;2023-11-21T09:02:45;8.00;;;4.00;;
76848;SDS011;65814;51.134;16.980;2023-11-21T09:05:14;6.30;;;4.20;;
76848;SDS011;65814;51.134;16.980;2023-11-21T09:07:42;7.10;;;4.70;;
76848;SDS011;65814;51.134;16.980;2023-11-21T09:10:11;7.70;;;4.80;;
76848;SDS011;65814;51.134;16.980;2023-11-21T09:12:39;7.20;;;5.40;;
76848;SDS011;65814;51.134;16.980;2023-11-21T09:15:07;8.10;;;4.90;;
76848;SDS011;65814;51.134;16.980;2023-11-21T09:17:37;9.20;;;5.60;;
76848;SDS011;65814;51.134;16.980;2023-11-21T09:20:06;11.40;;;5.10;;
76848;SDS011;65814;51.134;16.980;2023-11-21T09:22:38;8.80;;;5.30;;
76848;SDS011;65814;51.134;16.980;2023-11-21T09:25:06;7.60;;;5.10;;
76848;SDS011;65814;51.134;16.980;2023-11-21T09:27:36;7.10;;;4.70;;
76848;SDS011;65814;51.134;16.980;2023-11-21T09:30:09;8.80;;;5.50;;
76848;SDS011;65814;51.134;16.980;2023-11-21T09:32:38;6.30;;;5.30;;
76848;SDS011;65814;51.134;16.980;2023-11-21T09:35:06;9.00;;;4.60;;
76848;SDS011;65814;51.134;16.980;2023-11-21T09:37:36;8.00;;;5.50;;
76848;SDS011;65814;51.134;16.980;2023-11-21T09:40:07;7.00;;;5.20;;
76848;SDS011;65814;51.134;16.980;2023-11-21T09:42:47;8.10;;;4.80;;
76848;SDS011;65814;51.134;16.980;2023-11-21T09:45:26;7.00;;;4.50;;
76848;SDS011;65814;51.134;16.980;2023-11-21T09:47:59;7.10;;;5.20;;
76848;SDS011;65814;51.134;16.980;2023-11-21T09:50:27;8.20;;;5.30;;
76848;SDS011;65814;51.134;16.980;2023-11-21T09:55:52;6.70;;;5.50;;
76848;SDS011;65814;51.134;16.980;2023-11-21T09:58:21;8.10;;;5.10;;
76848;SDS011;65814;51.134;16.980;2023-11-21T10:00:53;9.10;;;4.40;;
76848;SDS011;65814;51.134;16.980;2023-11-21T10:03:24;7.10;;;4.10;;
76848;SDS011;65814;51.134;16.980;2023-11-21T10:05:53;7.40;;;5.20;;
76848;SDS011;65814;51.134;16.980;2023-11-21T10:08:22;6.80;;;4.00;;
76848;SDS011;65814;51.134;16.980;2023-11-21T10:10:52;6.90;;;4.80;;
76848;SDS011;65814;51.134;16.980;2023-11-21T10:13:21;8.10;;;5.10;;
76848;SDS011;65814;51.134;16.980;2023-11-21T10:15:50;8.90;;;5.60;;
76848;SDS011;65814;51.134;16.980;2023-11-21T10:18:19;7.20;;;4.40;;
76848;SDS011;65814;51.134;16.980;2023-11-21T10:20:50;6.80;;;4.70;;
76848;SDS011;65814;51.134;16.980;2023-11-21T10:23:21;6.50;;;4.50;;
76848;SDS011;65814;51.134;16.980;2023-11-21T10:25:51;6.50;;;4.70;;
76848;SDS011;65814;51.134;16.980;2023-11-21T10:28:22;5.80;;;4.30;;
76848;SDS011;65814;51.134;16.980;2023-11-21T10:30:50;7.30;;;4.40;;
76848;SDS011;65814;51.134;16.980;2023-11-21T10:33:18;4.80;;;4.10;;
76848;SDS011;65814;51.134;16.980;2023-11-21T10:35:55;4.70;;;3.80;;
76848;SDS011;65814;51.134;16.980;2023-11-21T10:38:23;9.50;;;6.70;;
76848;SDS011;65814;51.134;16.980;2023-11-21T10:40:52;15.40;;;9.50;;
76848;SDS011;65814;51.134;16.980;2023-11-21T10:43:25;19.40;;;11.50;;
76848;SDS011;65814;51.134;16.980;2023-11-21T10:45:57;16.30;;;11.60;;
76848;SDS011;65814;51.134;16.980;2023-11-21T10:48:27;17.40;;;11.60;;
76848;SDS011;65814;51.134;16.980;2023-11-21T10:50:55;17.30;;;11.40;;
76848;SDS011;65814;51.134;16.980;2023-11-21T10:53:27;22.80;;;14.80;;
76848;SDS011;65814;51.134;16.980;2023-11-21T10:56:05;21.20;;;14.70;;
76848;SDS011;65814;51.134;16.980;2023-11-21T10:58:35;22.00;;;15.40;;
76848;SDS011;65814;51.134;16.980;2023-11-21T11:01:04;18.40;;;13.40;;
76848;SDS011;65814;51.134;16.980;2023-11-21T11:03:34;19.30;;;11.70;;
76848;SDS011;65814;51.134;16.980;2023-11-21T11:06:04;20.20;;;13.40;;
76848;SDS011;65814;51.134;16.980;2023-11-21T11:08:56;18.20;;;11.00;;
76848;SDS011;65814;51.134;16.980;2023-11-21T11:11:25;19.60;;;13.00;;
76848;SDS011;65814;51.134;16.980;2023-11-21T11:13:53;19.20;;;12.70;;
76848;SDS011;65814;51.134;16.980;2023-11-21T11:16:21;18.20;;;11.60;;
76848;SDS011;65814;51.134;16.980;2023-11-21T11:18:50;15.60;;;11.20;;
76848;SDS011;65814;51.134;16.980;2023-11-21T11:21:27;19.90;;;11.60;;
76848;SDS011;65814;51.134;16.980;2023-11-21T11:29:17;19.00;;;12.10;;
76848;SDS011;65814;51.134;16.980;2023-11-21T11:37:28;17.50;;;10.60;;
76848;SDS011;65814;51.134;16.980;2023-11-21T11:39:57;18.40;;;12.20;;
76848;SDS011;65814;51.134;16.980;2023-11-21T11:42:26;15.30;;;11.10;;
76848;SDS011;65814;51.134;16.980;2023-11-21T11:44:54;19.90;;;12.40;;
76848;SDS011;65814;51.134;16.980;2023-11-21T11:47:25;17.90;;;12.30;;
76848;SDS011;65814;51.134;16.980;2023-11-21T11:50:09;20.00;;;12.50;;
76848;SDS011;65814;51.134;16.980;2023-11-21T11:52:42;18.60;;;12.40;;
76848;SDS011;65814;51.134;16.980;2023-11-21T11:55:15;23.30;;;14.90;;
76848;SDS011;65814;51.134;16.980;2023-11-21T11:57:53;19.10;;;11.70;;
76848;SDS011;65814;51.134;16.980;2023-11-21T12:02:57;21.80;;;12.50;;
76848;SDS011;65814;51.134;16.980;2023-11-21T12:05:27;19.40;;;12.50;;
76848;SDS011;65814;51.134;16.980;2023-11-21T12:07:57;19.10;;;12.40;;
76848;SDS011;65814;51.134;16.980;2023-11-21T12:10:26;19.50;;;12.40;;
76848;SDS011;65814;51.134;16.980;2023-11-21T12:12:56;18.10;;;11.90;;
76848;SDS011;65814;51.134;16.980;2023-11-21T12:15:26;18.80;;;11.90;;
76848;SDS011;65814;51.134;16.980;2023-11-21T12:17:58;15.40;;;10.70;;
76848;SDS011;65814;51.134;16.980;2023-11-21T12:20:27;17.40;;;11.40;;
76848;SDS011;65814;51.134;16.980;2023-11-21T12:22:59;19.50;;;12.30;;
76848;SDS011;65814;51.134;16.980;2023-11-21T12:25:29;16.10;;;11.20;;
76848;SDS011;65814;51.134;16.980;2023-11-21T12:28:00;16.60;;;10.50;;
76848;SDS011;65814;51.134;16.980;2023-11-21T12:30:31;14.40;;;11.10;;
76848;SDS011;65814;51.134;16.980;2023-11-21T12:35:32;12.70;;;8.90;;
76848;SDS011;65814;51.134;16.980;2023-11-21T12:38:05;13.50;;;9.20;;
76848;SDS011;65814;51.134;16.980;2023-11-21T12:40:33;11.70;;;8.10;;
76848;SDS011;65814;51.134;16.980;2023-11-21T12:43:02;13.40;;;9.30;;
76848;SDS011;65814;51.134;16.980;2023-11-21T12:45:32;11.30;;;9.00;;
76848;SDS011;65814;51.134;16.980;2023-11-21T12:48:02;12.00;;;8.70;;
76848;SDS011;65814;51.134;16.980;2023-11-21T12:50:37;11.50;;;8.00;;
76848;SDS011;65814;51.134;16.980;2023-11-21T12:53:07;12.30;;;8.30;;
76848;SDS011;65814;51.134;16.980;2023-11-21T12:55:38;12.80;;;8.10;;
76848;SDS011;65814;51.134;16.980;2023-11-21T12:58:07;10.90;;;7.60;;
76848;SDS011;65814;51.134;16.980;2023-11-21T13:00:39;12.50;;;7.50;;
76848;SDS011;65814;51.134;16.980;2023-11-21T13:03:11;10.70;;;7.00;;
76848;SDS011;65814;51.134;16.980;2023-11-21T13:05:45;9.60;;;7.10;;
76848;SDS011;65814;51.134;16.980;2023-11-21T13:08:20;8.70;;;6.40;;
76848;SDS011;65814;51.134;16.980;2023-11-21T13:10:54;10.10;;;7.60;;
76848;SDS011;65814;51.134;16.980;2023-11-21T13:13:27;8.80;;;6.20;;
76848;SDS011;65814;51.134;16.980;2023-11-21T13:15:57;7.70;;;5.60;;
76848;SDS011;65814;51.134;16.980;2023-11-21T13:18:33;8.10;;;6.00;;
76848;SDS011;65814;51.134;16.980;2023-11-21T13:21:03;9.40;;;6.50;;
76848;SDS011;65814;51.134;16.980;2023-11-21T13:23:42;7.60;;;6.50;;
76848;SDS011;65814;51.134;16.980;2023-11-21T13:26:10;8.60;;;6.20;;
76848;SDS011;65814;51.134;16.980;2023-11-21T13:28:40;7.50;;;5.70;;
76848;SDS011;65814;51.134;16.980;2023-11-21T13:31:14;7.30;;;6.10;;
76848;SDS011;65814;51.134;16.980;2023-11-21T13:33:50;7.60;;;5.80;;
76848;SDS011;65814;51.134;16.980;2023-11-21T13:36:24;8.10;;;6.00;;
76848;SDS011;65814;51.134;16.980;2023-11-21T13:38:53;6.90;;;5.60;;
76848;SDS011;65814;51.134;16.980;2023-11-21T13:41:22;8.40;;;6.10;;
76848;SDS011;65814;51.134;16.980;2023-11-21T13:43:59;7.30;;;5.80;;
76848;SDS011;65814;51.134;16.980;2023-11-21T13:46:44;8.00;;;6.20;;
76848;SDS011;65814;51.134;16.980;2023-11-21T13:49:14;7.40;;;6.10;;
76848;SDS011;65814;51.134;16.980;2023-11-21T13:51:44;8.30;;;6.20;;
76848;SDS011;65814;51.134;16.980;2023-11-21T13:54:13;8.00;;;6.40;;
76848;SDS011;65814;51.134;16.980;2023-11-21T13:56:42;8.00;;;5.90;;
76848;SDS011;65814;51.134;16.980;2023-11-21T13:59:12;5.70;;;5.10;;
76848;SDS011;65814;51.134;16.980;2023-11-21T14:01:56;6.20;;;5.10;;
76848;SDS011;65814;51.134;16.980;2023-11-21T14:04:28;5.80;;;4.60;;
76848;SDS011;65814;51.134;16.980;2023-11-21T14:07:15;6.40;;;4.70;;
76848;SDS011;65814;51.134;16.980;2023-11-21T14:10:03;5.50;;;4.60;;
76848;SDS011;65814;51.134;16.980;2023-11-21T14:12:39;4.60;;;3.90;;
76848;SDS011;65814;51.134;16.980;2023-11-21T14:15:10;6.40;;;5.20;;
76848;SDS011;65814;51.134;16.980;2023-11-21T14:17:40;6.00;;;5.40;;
76848;SDS011;65814;51.134;16.980;2023-11-21T14:20:10;5.20;;;4.50;;
76848;SDS011;65814;51.134;16.980;2023-11-21T14:22:44;5.70;;;4.80;;
76848;SDS011;65814;51.134;16.980;2023-11-21T14:25:13;5.80;;;5.20;;
76848;SDS011;65814;51.134;16.980;2023-11-21T14:27:42;6.00;;;5.00;;
76848;SDS011;65814;51.134;16.980;2023-11-21T14:30:10;6.00;;;5.20;;
76848;SDS011;65814;51.134;16.980;2023-11-21T14:32:41;6.60;;;5.80;;
76848;SDS011;65814;51.134;16.980;2023-11-21T14:35:10;8.20;;;6.70;;
76848;SDS011;65814;51.134;16.980;2023-11-21T14:37:41;9.30;;;6.40;;
76848;SDS011;65814;51.134;16.980;2023-11-21T14:40:10;7.00;;;6.20;;
76848;SDS011;65814;51.134;16.980;2023-11-21T14:42:39;7.60;;;6.70;;
76848;SDS011;65814;51.134;16.980;2023-11-21T14:45:07;6.90;;;6.20;;
76848;SDS011;65814;51.134;16.980;2023-11-21T14:47:37;8.50;;;6.60;;
76848;SDS011;65814;51.134;16.980;2023-11-21T14:50:10;8.70;;;7.50;;
76848;SDS011;65814;51.134;16.980;2023-11-21T14:53:07;7.80;;;6.30;;
76848;SDS011;65814;51.134;16.980;2023-11-21T14:55:40;8.20;;;6.60;;
76848;SDS011;65814;51.134;16.980;2023-11-21T14:58:17;7.40;;;6.50;;
76848;SDS011;65814;51.134;16.980;2023-11-21T15:00:56;8.30;;;6.50;;
76848;SDS011;65814;51.134;16.980;2023-11-21T15:03:26;8.30;;;6.40;;
76848;SDS011;65814;51.134;16.980;2023-11-21T15:05:59;8.20;;;6.40;;
76848;SDS011;65814;51.134;16.980;2023-11-21T15:08:50;8.00;;;6.60;;
76848;SDS011;65814;51.134;16.980;2023-11-21T15:11:45;7.30;;;6.40;;
76848;SDS011;65814;51.134;16.980;2023-11-21T15:14:15;9.10;;;7.20;;